Time;durP1;ratioP1;P1;durP2;ratioP2;P2;SDS_P1;SDS_P2;PMS_P1;PMS_P2;Temp;Humidity;BMP_temperature;BMP_pressure;BME280_temperature;BME280_humidity;BME280_pressure;Samples;Min_cycle;Max_cycle;Signal;HPM_P1;HPM_P2
2023/10/22 00:00:35;;;;;;;7.20;5.60;;;;;;;;;;2064550;28;20030;-77
2023/10/22 00:01:56;;;;;;;5.05;3.88;;;;;;;;;;2064714;28;20501;-78
2023/10/22 00:03:17;;;;;;;8.82;4.85;;;;;;;;;;2056712;28;20039;-77
2023/10/22 00:04:40;;;;;;;6.22;4.25;;;;;;;;;;2061771;28;20045;-78
2023/10/22 00:06:01;;;;;;;5.75;4.82;;;;;;;;;;2055501;28;20098;-78
2023/10/22 00:07:22;;;;;;;7.57;4.15;;;;;;;;;;2058796;28;20026;-77
2023/10/22 00:08:43;;;;;;;4.63;3.70;;;;;;;;;;2051878;28;20098;-78
2023/10/22 00:10:04;;;;;;;5.10;4.15;;;;;;;;;;2057179;28;20462;-78
2023/10/22 00:11:25;;;;;;;7.53;3.85;;;;;;;;;;2052443;28;20030;-78
2023/10/22 00:12:46;;;;;;;6.85;4.10;;;;;;;;;;2060757;28;20046;-77
2023/10/22 00:14:07;;;;;;;4.70;3.92;;;;;;;;;;2056842;28;20403;-78
2023/10/22 00:15:28;;;;;;;5.55;4.53;;;;;;;;;;2050290;28;20035;-78
2023/10/22 00:16:48;;;;;;;4.95;4.18;;;;;;;;;;2060933;28;20026;-78
2023/10/22 00:18:09;;;;;;;5.53;4.50;;;;;;;;;;2056289;28;20042;-79
2023/10/22 00:19:30;;;;;;;5.13;4.13;;;;;;;;;;2057168;28;20049;-78
2023/10/22 00:20:51;;;;;;;5.60;4.15;;;;;;;;;;2063702;28;20026;-79
2023/10/22 00:22:14;;;;;;;4.45;3.70;;;;;;;;;;2058731;28;20027;-78
2023/10/22 00:23:35;;;;;;;7.03;4.20;;;;;;;;;;2055349;28;20406;-79
2023/10/22 00:24:56;;;;;;;7.95;4.47;;;;;;;;;;2061026;28;20042;-78
2023/10/22 00:26:18;;;;;;;7.45;4.55;;;;;;;;;;2055407;28;20035;-78
2023/10/22 00:27:39;;;;;;;;;;;;;;;;;;2057577;28;20450;-78
2023/10/22 00:29:00;;;;;;;6.03;4.53;;;;;;;;;;2063361;28;20277;-78
2023/10/22 00:30:21;;;;;;;4.85;4.45;;;;;;;;;;2055695;28;20054;-78
2023/10/22 00:31:42;;;;;;;7.78;4.30;;;;;;;;;;2059733;28;20395;-78
2023/10/22 00:33:03;;;;;;;7.88;4.75;;;;;;;;;;2061328;28;20030;-78
2023/10/22 00:34:24;;;;;;;4.93;3.53;;;;;;;;;;2067756;28;20022;-79
2023/10/22 00:35:55;;;;;;;5.07;3.92;;;;;;;;;;2071783;28;20481;-79
2023/10/22 00:37:16;;;;;;;4.43;3.87;;;;;;;;;;2059512;28;20031;-79
2023/10/22 00:38:37;;;;;;;7.05;4.85;;;;;;;;;;2063826;28;20503;-79
2023/10/22 00:39:58;;;;;;;6.82;4.28;;;;;;;;;;2065160;28;20034;-78
2023/10/22 00:41:19;;;;;;;5.53;4.18;;;;;;;;;;2063439;28;20039;-78
2023/10/22 00:42:40;;;;;;;6.55;4.57;;;;;;;;;;2059451;28;20039;-78
2023/10/22 00:44:04;;;;;;;6.47;4.00;;;;;;;;;;2064635;28;20173;-78
2023/10/22 00:45:25;;;;;;;7.13;3.85;;;;;;;;;;2063108;28;20392;-79
2023/10/22 00:46:46;;;;;;;5.65;3.67;;;;;;;;;;2063381;28;20390;-79
2023/10/22 00:48:09;;;;;;;7.30;4.28;;;;;;;;;;2064228;28;20087;-79
2023/10/22 00:49:30;;;;;;;5.70;4.10;;;;;;;;;;2059155;28;20039;-79
2023/10/22 00:50:50;;;;;;;5.38;4.50;;;;;;;;;;2061644;28;20031;-78
2023/10/22 00:52:12;;;;;;;4.60;3.75;;;;;;;;;;2062734;28;20101;-78
2023/10/22 00:53:33;;;;;;;5.87;3.93;;;;;;;;;;2054992;28;20482;-78
2023/10/22 00:54:54;;;;;;;5.55;3.92;;;;;;;;;;2057852;28;20027;-79
2023/10/22 00:56:16;;;;;;;8.52;4.22;;;;;;;;;;2056855;28;20023;-79
2023/10/22 00:57:37;;;;;;;10.13;5.00;;;;;;;;;;2050567;28;20027;-78
2023/10/22 00:58:58;;;;;;;6.07;4.20;;;;;;;;;;2062866;28;20042;-78
2023/10/22 01:00:20;;;;;;;4.65;4.13;;;;;;;;;;2065852;28;20034;-78
2023/10/22 01:01:42;;;;;;;;;;;;;;;;;;2067212;28;20037;-78
2023/10/22 01:03:06;;;;;;;6.72;4.05;;;;;;;;;;2067113;28;20710;-79
2023/10/22 01:04:27;;;;;;;6.70;4.55;;;;;;;;;;2065771;28;20037;-79
2023/10/22 01:05:48;;;;;;;5.43;4.45;;;;;;;;;;2063409;28;20065;-78
2023/10/22 01:07:09;;;;;;;5.63;4.28;;;;;;;;;;2066825;28;20027;-79
2023/10/22 01:08:32;;;;;;;8.82;4.47;;;;;;;;;;2065262;28;20030;-78
2023/10/22 01:09:53;;;;;;;6.55;4.20;;;;;;;;;;2066843;28;20034;-78
2023/10/22 01:11:15;;;;;;;6.53;5.00;;;;;;;;;;2063114;28;20030;-79
2023/10/22 01:12:38;;;;;;;;;;;;;;;;;;2066176;28;20126;-78
2023/10/22 01:13:58;;;;;;;12.63;6.55;;;;;;;;;;2071064;28;20298;-77
2023/10/22 01:15:19;;;;;;;5.55;4.30;;;;;;;;;;2062570;28;20089;-78
2023/10/22 01:16:40;;;;;;;5.10;4.50;;;;;;;;;;2064392;28;20031;-79
2023/10/22 01:18:02;;;;;;;6.35;4.65;;;;;;;;;;2064699;28;20033;-78
2023/10/22 01:19:23;;;;;;;6.53;4.68;;;;;;;;;;2048739;29;20133;-79
2023/10/22 01:20:46;;;;;;;7.35;4.40;;;;;;;;;;2049356;28;20035;-79
2023/10/22 01:22:07;;;;;;;4.20;3.80;;;;;;;;;;2054274;28;20035;-79
2023/10/22 01:23:28;;;;;;;5.47;4.45;;;;;;;;;;2060321;28;20041;-79
2023/10/22 01:24:49;;;;;;;7.30;5.15;;;;;;;;;;2057060;28;20027;-78
2023/10/22 01:26:09;;;;;;;6.88;4.10;;;;;;;;;;2057500;28;20494;-79
2023/10/22 01:27:33;;;;;;;6.95;4.40;;;;;;;;;;2062952;28;20030;-79
2023/10/22 01:28:54;;;;;;;8.05;4.28;;;;;;;;;;2076829;28;20052;-80
2023/10/22 01:30:15;;;;;;;6.00;4.47;;;;;;;;;;2072766;28;20093;-80
2023/10/22 01:31:36;;;;;;;7.72;4.78;;;;;;;;;;2069212;28;20030;-78
2023/10/22 01:32:57;;;;;;;6.72;4.72;;;;;;;;;;2063977;28;20498;-78
2023/10/22 01:34:18;;;;;;;5.45;4.60;;;;;;;;;;2060296;28;20034;-78
2023/10/22 01:35:39;;;;;;;8.35;4.63;;;;;;;;;;2072077;28;20038;-78
2023/10/22 01:37:00;;;;;;;6.10;4.63;;;;;;;;;;2067720;28;20022;-78
2023/10/22 01:38:21;;;;;;;8.02;3.95;;;;;;;;;;2067636;28;20045;-79
2023/10/22 01:39:42;;;;;;;7.15;4.60;;;;;;;;;;2073748;28;20026;-78
2023/10/22 01:41:06;;;;;;;5.88;5.00;;;;;;;;;;2070881;28;20022;-78
2023/10/22 01:42:27;;;;;;;6.70;4.25;;;;;;;;;;2073660;28;20061;-78
2023/10/22 01:43:48;;;;;;;5.40;4.22;;;;;;;;;;2068373;28;20401;-78
2023/10/22 01:45:09;;;;;;;5.93;4.18;;;;;;;;;;2055570;28;20038;-79
2023/10/22 01:46:30;;;;;;;7.05;4.47;;;;;;;;;;2057237;28;20038;-79
2023/10/22 01:47:51;;;;;;;9.23;4.85;;;;;;;;;;2063687;28;20057;-79
2023/10/22 01:49:11;;;;;;;6.18;4.30;;;;;;;;;;2063202;28;20466;-78
2023/10/22 01:50:32;;;;;;;7.10;4.68;;;;;;;;;;2061269;28;20049;-77
2023/10/22 01:51:53;;;;;;;6.38;3.97;;;;;;;;;;2062963;28;20465;-78
2023/10/22 01:53:15;;;;;;;6.53;4.25;;;;;;;;;;2067764;28;20019;-79
2023/10/22 01:54:36;;;;;;;8.68;5.10;;;;;;;;;;2065509;28;20406;-78
2023/10/22 01:55:57;;;;;;;6.10;4.05;;;;;;;;;;2065680;28;20022;-78
2023/10/22 01:57:18;;;;;;;6.72;4.78;;;;;;;;;;2074013;28;20038;-78
2023/10/22 01:58:39;;;;;;;5.78;4.85;;;;;;;;;;2071881;28;20453;-78
2023/10/22 02:00:00;;;;;;;4.72;4.07;;;;;;;;;;2074191;28;20508;-78
2023/10/22 02:01:21;;;;;;;9.23;5.65;;;;;;;;;;2071934;28;20033;-78
2023/10/22 02:02:42;;;;;;;6.75;4.60;;;;;;;;;;2065576;28;20038;-77
2023/10/22 02:04:03;;;;;;;5.88;4.35;;;;;;;;;;2078695;28;20032;-77
2023/10/22 02:05:23;;;;;;;9.82;5.07;;;;;;;;;;2076042;28;20352;-78
2023/10/22 02:06:44;;;;;;;6.43;4.35;;;;;;;;;;2068761;28;20042;-77
2023/10/22 02:08:06;;;;;;;5.88;4.80;;;;;;;;;;2064334;28;20038;-76
2023/10/22 02:09:26;;;;;;;6.32;4.28;;;;;;;;;;2077920;28;20038;-76
2023/10/22 02:10:48;;;;;;;7.05;4.68;;;;;;;;;;2073336;28;20034;-76
2023/10/22 02:12:08;;;;;;;9.82;5.05;;;;;;;;;;2065338;28;20025;-76
2023/10/22 02:13:29;;;;;;;10.70;4.50;;;;;;;;;;2064785;28;20183;-76
2023/10/22 02:14:50;;;;;;;6.18;4.50;;;;;;;;;;2072668;28;20022;-76
2023/10/22 02:16:11;;;;;;;9.65;4.32;;;;;;;;;;2064082;28;20042;-76
2023/10/22 02:17:32;;;;;;;6.68;4.97;;;;;;;;;;2061833;28;20595;-76
2023/10/22 02:18:53;;;;;;;6.47;4.05;;;;;;;;;;2063744;28;20101;-76
2023/10/22 02:20:14;;;;;;;10.18;5.03;;;;;;;;;;2064406;28;20053;-75
2023/10/22 02:21:35;;;;;;;8.02;4.97;;;;;;;;;;2069156;28;20026;-75
2023/10/22 02:22:57;;;;;;;8.43;5.68;;;;;;;;;;2064667;28;20026;-75
2023/10/22 02:24:18;;;;;;;;;;;;;;;;;;2054350;28;20058;-75
2023/10/22 02:25:38;;;;;;;8.20;4.75;;;;;;;;;;2057466;28;19906;-76
2023/10/22 02:26:59;;;;;;;7.32;4.72;;;;;;;;;;2063113;28;20360;-75
2023/10/22 02:28:20;;;;;;;11.75;5.47;;;;;;;;;;2070193;28;20274;-75
2023/10/22 02:29:41;;;;;;;7.18;4.70;;;;;;;;;;2075594;28;20098;-75
2023/10/22 02:31:04;;;;;;;8.55;4.78;;;;;;;;;;2064004;28;20256;-75
2023/10/22 02:32:25;;;;;;;6.10;4.97;;;;;;;;;;2064703;28;20027;-75
2023/10/22 02:33:46;;;;;;;5.18;4.45;;;;;;;;;;2077682;28;20366;-75
2023/10/22 02:35:07;;;;;;;8.65;5.03;;;;;;;;;;2055760;28;20031;-75
2023/10/22 02:36:28;;;;;;;6.45;5.43;;;;;;;;;;2063608;28;20080;-75
2023/10/22 02:37:49;;;;;;;6.90;5.10;;;;;;;;;;2061052;28;20414;-75
2023/10/22 02:39:11;;;;;;;8.20;5.05;;;;;;;;;;2063886;28;20046;-75
2023/10/22 02:40:38;;;;;;;9.90;5.15;;;;;;;;;;2069353;28;20045;-75
2023/10/22 02:41:59;;;;;;;10.05;5.40;;;;;;;;;;2066414;28;20038;-75
2023/10/22 02:43:20;;;;;;;7.60;5.63;;;;;;;;;;2066526;28;20050;-76
2023/10/22 02:44:41;;;;;;;8.85;5.28;;;;;;;;;;2064798;28;20041;-75
2023/10/22 02:46:02;;;;;;;9.30;5.20;;;;;;;;;;2061690;28;20038;-75
2023/10/22 02:47:22;;;;;;;10.50;5.25;;;;;;;;;;2064818;28;20035;-75
2023/10/22 02:48:43;;;;;;;7.82;5.60;;;;;;;;;;2079598;28;20087;-76
2023/10/22 02:50:04;;;;;;;8.10;5.60;;;;;;;;;;2059834;28;20031;-77
2023/10/22 02:51:25;;;;;;;7.13;5.25;;;;;;;;;;2060287;28;20500;-76
2023/10/22 02:52:46;;;;;;;9.52;5.38;;;;;;;;;;2061517;28;20080;-76
2023/10/22 02:54:07;;;;;;;5.97;4.90;;;;;;;;;;2070464;28;20041;-76
2023/10/22 02:55:28;;;;;;;7.20;5.45;;;;;;;;;;2067297;28;20034;-75
2023/10/22 02:56:49;;;;;;;9.15;5.63;;;;;;;;;;2065235;28;20179;-76
2023/10/22 02:58:10;;;;;;;8.07;5.10;;;;;;;;;;2052394;28;20669;-76
2023/10/22 02:59:30;;;;;;;6.95;5.20;;;;;;;;;;2062809;28;20060;-76
2023/10/22 03:00:51;;;;;;;7.20;4.93;;;;;;;;;;2064534;28;20034;-76
2023/10/22 03:02:12;;;;;;;8.63;5.63;;;;;;;;;;2063122;28;20041;-76
2023/10/22 03:03:38;;;;;;;7.82;5.57;;;;;;;;;;2066531;28;20045;-76
2023/10/22 03:04:59;;;;;;;8.30;5.00;;;;;;;;;;2080406;28;20029;-76
2023/10/22 03:06:20;;;;;;;8.52;4.88;;;;;;;;;;2072256;28;20045;-76
2023/10/22 03:07:41;;;;;;;8.73;5.90;;;;;;;;;;2072329;28;20030;-76
2023/10/22 03:09:03;;;;;;;9.65;5.30;;;;;;;;;;2059433;28;20042;-76
2023/10/22 03:10:24;;;;;;;7.85;5.25;;;;;;;;;;2061385;28;20027;-76
2023/10/22 03:11:45;;;;;;;10.80;5.40;;;;;;;;;;2061317;28;20029;-76
2023/10/22 03:13:06;;;;;;;5.82;4.40;;;;;;;;;;2061663;28;20027;-76
2023/10/22 03:14:27;;;;;;;8.95;5.30;;;;;;;;;;2071310;28;20524;-76
2023/10/22 03:15:48;;;;;;;6.80;5.15;;;;;;;;;;2068209;28;20453;-76
2023/10/22 03:17:09;;;;;;;7.13;5.00;;;;;;;;;;2064431;28;20036;-76
2023/10/22 03:18:30;;;;;;;5.88;5.35;;;;;;;;;;2066874;28;20076;-76
2023/10/22 03:19:51;;;;;;;6.32;5.25;;;;;;;;;;2074623;28;20516;-76
2023/10/22 03:21:16;;;;;;;9.00;5.22;;;;;;;;;;2067529;28;20041;-76
2023/10/22 03:22:37;;;;;;;9.57;6.18;;;;;;;;;;2071701;28;20034;-77
2023/10/22 03:23:58;;;;;;;7.03;5.72;;;;;;;;;;2065032;28;20097;-77
2023/10/22 03:25:21;;;;;;;14.10;5.38;;;;;;;;;;2074349;28;20040;-77
2023/10/22 03:26:43;;;;;;;9.98;5.28;;;;;;;;;;2064439;28;20022;-77
2023/10/22 03:28:04;;;;;;;6.85;5.25;;;;;;;;;;2059501;28;20034;-77
2023/10/22 03:29:26;;;;;;;8.43;5.82;;;;;;;;;;2064036;28;20066;-77
2023/10/22 03:30:47;;;;;;;4.93;4.37;;;;;;;;;;2064153;28;20034;-77
2023/10/22 03:32:09;;;;;;;7.03;5.13;;;;;;;;;;2069768;28;20748;-77
2023/10/22 03:33:31;;;;;;;9.13;5.57;;;;;;;;;;2064049;28;20450;-77
2023/10/22 03:34:51;;;;;;;5.47;4.75;;;;;;;;;;2072657;28;20029;-77
2023/10/22 03:36:14;;;;;;;7.15;5.88;;;;;;;;;;2072280;28;20088;-76
2023/10/22 03:37:35;;;;;;;11.13;5.40;;;;;;;;;;2074184;28;20403;-77
2023/10/22 03:38:56;;;;;;;8.15;5.57;;;;;;;;;;2063592;28;20651;-77
2023/10/22 03:40:17;;;;;;;7.88;5.20;;;;;;;;;;2062110;28;20069;-77
2023/10/22 03:41:40;;;;;;;7.22;5.32;;;;;;;;;;2073096;28;20037;-77
2023/10/22 03:43:01;;;;;;;8.00;5.55;;;;;;;;;;2068088;28;20023;-77
2023/10/22 03:44:22;;;;;;;8.90;5.97;;;;;;;;;;2065300;28;20462;-77
2023/10/22 03:45:43;;;;;;;9.30;6.47;;;;;;;;;;2064499;28;20038;-78
2023/10/22 03:47:04;;;;;;;9.15;6.60;;;;;;;;;;2053005;28;20077;-78
2023/10/22 03:48:28;;;;;;;9.25;7.22;;;;;;;;;;2062572;28;20037;-77
2023/10/22 03:49:50;;;;;;;8.85;7.07;;;;;;;;;;2075801;28;20041;-77
2023/10/22 03:51:11;;;;;;;8.77;6.35;;;;;;;;;;2064583;28;20033;-77
2023/10/22 03:52:32;;;;;;;10.05;6.60;;;;;;;;;;2065297;28;20513;-77
2023/10/22 03:53:53;;;;;;;10.13;6.88;;;;;;;;;;2061477;28;20138;-77
2023/10/22 03:55:14;;;;;;;8.00;6.30;;;;;;;;;;2077021;28;20036;-78
2023/10/22 03:56:35;;;;;;;7.57;5.75;;;;;;;;;;2069668;28;20022;-78
2023/10/22 03:57:57;;;;;;;7.53;5.55;;;;;;;;;;2065134;28;20049;-78
2023/10/22 03:59:18;;;;;;;8.90;6.85;;;;;;;;;;2063956;28;20050;-77
2023/10/22 04:00:39;;;;;;;7.72;6.10;;;;;;;;;;2068515;28;20426;-78
2023/10/22 04:02:00;;;;;;;9.27;6.22;;;;;;;;;;2057355;28;20042;-77
2023/10/22 04:03:22;;;;;;;9.35;6.47;;;;;;;;;;2064449;28;20039;-77
2023/10/22 04:04:44;;;;;;;11.13;7.25;;;;;;;;;;2070872;28;20489;-77
2023/10/22 04:06:05;;;;;;;9.80;7.40;;;;;;;;;;2072907;28;20034;-77
2023/10/22 04:07:26;;;;;;;11.95;7.38;;;;;;;;;;2068758;28;20409;-77
2023/10/22 04:08:47;;;;;;;11.05;8.20;;;;;;;;;;2060455;28;20034;-77
2023/10/22 04:10:09;;;;;;;9.43;6.72;;;;;;;;;;2061224;28;20425;-77
2023/10/22 04:11:30;;;;;;;16.15;7.57;;;;;;;;;;2056711;28;20339;-78
2023/10/22 04:12:51;;;;;;;11.32;6.40;;;;;;;;;;2062139;28;20434;-77
2023/10/22 04:14:13;;;;;;;11.00;6.70;;;;;;;;;;2062556;28;20034;-78
2023/10/22 04:15:38;;;;;;;8.93;7.10;;;;;;;;;;2063585;28;20497;-77
2023/10/22 04:16:59;;;;;;;9.70;6.65;;;;;;;;;;2062319;28;20034;-77
2023/10/22 04:18:21;;;;;;;10.93;8.38;;;;;;;;;;2060286;28;20462;-77
2023/10/22 04:19:42;;;;;;;11.68;6.95;;;;;;;;;;2065857;28;20504;-78
2023/10/22 04:21:11;;;;;;;11.45;7.25;;;;;;;;;;2064599;28;20414;-78
2023/10/22 04:22:32;;;;;;;11.43;7.60;;;;;;;;;;2066466;28;20065;-77
2023/10/22 04:23:53;;;;;;;10.27;7.75;;;;;;;;;;2052310;28;20035;-77
2023/10/22 04:25:14;;;;;;;12.00;7.43;;;;;;;;;;2068177;28;20026;-77
2023/10/22 04:26:35;;;;;;;9.90;7.00;;;;;;;;;;2059790;28;20029;-77
2023/10/22 04:27:56;;;;;;;14.57;7.15;;;;;;;;;;2053396;28;20027;-77
2023/10/22 04:29:18;;;;;;;15.57;8.13;;;;;;;;;;2065235;28;20085;-77
2023/10/22 04:30:39;;;;;;;10.85;7.95;;;;;;;;;;2067937;28;20126;-77
2023/10/22 04:32:00;;;;;;;10.80;7.80;;;;;;;;;;2066402;28;20030;-77
2023/10/22 04:33:21;;;;;;;13.98;7.18;;;;;;;;;;2063707;28;20487;-77
2023/10/22 04:34:42;;;;;;;15.40;7.50;;;;;;;;;;2069445;28;20034;-78
2023/10/22 04:36:04;;;;;;;14.33;7.67;;;;;;;;;;2066076;28;20026;-77
2023/10/22 04:37:27;;;;;;;16.90;8.35;;;;;;;;;;2060326;28;20397;-77
2023/10/22 04:38:48;;;;;;;13.52;7.78;;;;;;;;;;2067040;28;20084;-77
2023/10/22 04:40:09;;;;;;;11.40;7.55;;;;;;;;;;2056298;28;20066;-77
2023/10/22 04:41:30;;;;;;;11.13;7.68;;;;;;;;;;2062172;28;20034;-77
2023/10/22 04:42:54;;;;;;;12.50;8.98;;;;;;;;;;2056841;28;20470;-77
2023/10/22 04:44:15;;;;;;;13.93;6.88;;;;;;;;;;2052317;28;20046;-78
2023/10/22 04:45:36;;;;;;;13.38;8.07;;;;;;;;;;2050125;28;20031;-77
2023/10/22 04:46:57;;;;;;;12.05;7.72;;;;;;;;;;2050560;28;20483;-77
2023/10/22 04:48:17;;;;;;;13.18;7.82;;;;;;;;;;2051035;28;20043;-77
2023/10/22 04:49:38;;;;;;;14.20;7.35;;;;;;;;;;2051676;28;20046;-78
2023/10/22 04:51:06;;;;;;;9.70;6.97;;;;;;;;;;2049790;29;20043;-78
2023/10/22 04:52:34;;;;;;;12.73;8.00;;;;;;;;;;2053008;28;20031;-77
2023/10/22 04:53:54;;;;;;;12.90;7.60;;;;;;;;;;2051526;28;20034;-78
2023/10/22 04:55:15;;;;;;;10.93;6.88;;;;;;;;;;2056803;28;20079;-77
2023/10/22 04:56:36;;;;;;;11.60;6.93;;;;;;;;;;2050234;28;20044;-78
2023/10/22 04:57:57;;;;;;;13.20;8.15;;;;;;;;;;2053440;28;20018;-78
2023/10/22 04:59:19;;;;;;;10.73;7.35;;;;;;;;;;2055828;28;20041;-77
2023/10/22 05:00:39;;;;;;;12.07;7.43;;;;;;;;;;2066521;28;20088;-77
2023/10/22 05:02:00;;;;;;;11.13;7.07;;;;;;;;;;2065239;28;20038;-76
2023/10/22 05:03:22;;;;;;;10.48;6.97;;;;;;;;;;2058538;28;20046;-77
2023/10/22 05:04:49;;;;;;;12.85;7.22;;;;;;;;;;2061588;28;20041;-77
2023/10/22 05:06:10;;;;;;;11.65;7.15;;;;;;;;;;2057736;28;20027;-77
2023/10/22 05:07:31;;;;;;;12.63;7.70;;;;;;;;;;2056694;28;20081;-77
2023/10/22 05:08:52;;;;;;;11.48;7.43;;;;;;;;;;2061482;28;20413;-77
2023/10/22 05:10:14;;;;;;;12.02;6.50;;;;;;;;;;2059109;28;20046;-77
2023/10/22 05:11:34;;;;;;;8.97;6.43;;;;;;;;;;2057835;28;20030;-77
2023/10/22 05:12:55;;;;;;;14.30;7.32;;;;;;;;;;2072331;28;20022;-77
2023/10/22 05:14:16;;;;;;;14.20;7.00;;;;;;;;;;2060925;28;20475;-76
2023/10/22 05:15:37;;;;;;;12.90;7.35;;;;;;;;;;2061994;28;20022;-77
2023/10/22 05:16:58;;;;;;;12.45;7.53;;;;;;;;;;2072329;28;20097;-77
2023/10/22 05:18:19;;;;;;;13.38;7.15;;;;;;;;;;2060765;28;20066;-77
2023/10/22 05:19:41;;;;;;;10.95;7.60;;;;;;;;;;2065756;28;20042;-77
2023/10/22 05:21:04;;;;;;;11.63;7.50;;;;;;;;;;2058068;28;20042;-77
2023/10/22 05:22:25;;;;;;;10.43;6.72;;;;;;;;;;2067878;28;20455;-77
2023/10/22 05:23:46;;;;;;;12.90;6.80;;;;;;;;;;2072261;28;20030;-77
2023/10/22 05:25:07;;;;;;;11.13;6.32;;;;;;;;;;2060076;28;20682;-78
2023/10/22 05:26:28;;;;;;;11.82;6.88;;;;;;;;;;2065940;28;20038;-77
2023/10/22 05:27:49;;;;;;;11.57;6.95;;;;;;;;;;2063105;28;20031;-77
2023/10/22 05:29:10;;;;;;;10.82;7.13;;;;;;;;;;2063604;28;20038;-77
2023/10/22 05:30:31;;;;;;;12.50;6.53;;;;;;;;;;2069851;28;20050;-78
2023/10/22 05:31:54;;;;;;;10.40;7.20;;;;;;;;;;2069973;28;20163;-77
2023/10/22 05:33:15;;;;;;;14.98;7.57;;;;;;;;;;2065288;28;20039;-77
2023/10/22 05:34:37;;;;;;;11.15;7.32;;;;;;;;;;2072633;28;20030;-78
2023/10/22 05:35:58;;;;;;;8.93;6.68;;;;;;;;;;2065750;28;20030;-77
2023/10/22 05:37:21;;;;;;;13.90;7.55;;;;;;;;;;2061945;28;20351;-77
2023/10/22 05:38:42;;;;;;;10.23;6.60;;;;;;;;;;2067335;28;20285;-77
2023/10/22 05:40:04;;;;;;;8.48;6.75;;;;;;;;;;2061126;28;20030;-77
2023/10/22 05:41:28;;;;;;;;;;;;;;;;;;2060986;28;20038;-78
2023/10/22 05:42:49;;;;;;;9.35;6.70;;;;;;;;;;2062113;28;19913;-78
2023/10/22 05:44:10;;;;;;;9.57;6.78;;;;;;;;;;2067341;28;20090;-78
2023/10/22 05:45:30;;;;;;;15.02;7.82;;;;;;;;;;2065678;28;20034;-79
2023/10/22 05:46:51;;;;;;;7.57;6.18;;;;;;;;;;2066340;28;20129;-76
2023/10/22 05:48:12;;;;;;;10.43;6.82;;;;;;;;;;2063171;28;20145;-77
2023/10/22 05:49:33;;;;;;;10.43;6.60;;;;;;;;;;2065812;28;20050;-78
2023/10/22 05:50:54;;;;;;;9.88;6.63;;;;;;;;;;2068275;28;20444;-79
2023/10/22 05:52:15;;;;;;;10.93;7.47;;;;;;;;;;2059215;28;20118;-78
2023/10/22 05:53:36;;;;;;;14.73;7.05;;;;;;;;;;2064030;28;20030;-77
2023/10/22 05:54:57;;;;;;;16.23;7.38;;;;;;;;;;2072074;28;20505;-77
2023/10/22 05:56:18;;;;;;;15.85;7.35;;;;;;;;;;2061744;28;20077;-78
2023/10/22 05:57:39;;;;;;;11.05;7.00;;;;;;;;;;2063298;28;20502;-77
2023/10/22 05:59:04;;;;;;;12.60;8.50;;;;;;;;;;2060463;28;20474;-77
2023/10/22 06:00:25;;;;;;;10.75;6.55;;;;;;;;;;2059283;28;20457;-77
2023/10/22 06:01:46;;;;;;;13.30;7.10;;;;;;;;;;2060908;28;20105;-77
2023/10/22 06:03:07;;;;;;;12.18;7.75;;;;;;;;;;2055197;28;20781;-77
2023/10/22 06:04:28;;;;;;;12.20;7.18;;;;;;;;;;2057927;28;20026;-77
2023/10/22 06:05:49;;;;;;;12.93;7.38;;;;;;;;;;2052650;28;20035;-78
2023/10/22 06:07:10;;;;;;;8.68;6.40;;;;;;;;;;2050267;28;20053;-78
2023/10/22 06:08:32;;;;;;;8.95;6.22;;;;;;;;;;2063440;28;20402;-78
2023/10/22 06:09:53;;;;;;;;;;;;;;;;;;2073517;28;20034;-78
2023/10/22 06:11:14;;;;;;;10.93;6.85;;;;;;;;;;2067993;28;20349;-78
2023/10/22 06:12:35;;;;;;;8.43;6.38;;;;;;;;;;2065161;28;20445;-77
2023/10/22 06:13:56;;;;;;;9.98;6.55;;;;;;;;;;2069241;28;20038;-77
2023/10/22 06:15:17;;;;;;;8.20;6.40;;;;;;;;;;2059241;28;20023;-77
2023/10/22 06:16:37;;;;;;;8.48;6.00;;;;;;;;;;2065461;28;20022;-77
2023/10/22 06:17:58;;;;;;;8.80;6.32;;;;;;;;;;2066851;28;20035;-77
2023/10/22 06:19:19;;;;;;;11.70;6.63;;;;;;;;;;2056941;28;20153;-77
2023/10/22 06:20:40;;;;;;;9.02;7.07;;;;;;;;;;2066682;28;20037;-79
2023/10/22 06:22:01;;;;;;;12.75;7.20;;;;;;;;;;2064733;28;20038;-79
2023/10/22 06:23:22;;;;;;;11.38;7.07;;;;;;;;;;2062346;28;20042;-78
2023/10/22 06:24:43;;;;;;;14.38;7.00;;;;;;;;;;2065164;28;20038;-78
2023/10/22 06:26:08;;;;;;;10.90;6.75;;;;;;;;;;2058072;28;20034;-78
2023/10/22 06:27:30;;;;;;;9.50;7.03;;;;;;;;;;2061207;28;20509;-78
2023/10/22 06:28:51;;;;;;;12.05;7.13;;;;;;;;;;2056705;28;20042;-77
2023/10/22 06:30:12;;;;;;;11.55;7.60;;;;;;;;;;2059940;28;20054;-78
2023/10/22 06:31:33;;;;;;;9.40;6.65;;;;;;;;;;2068903;28;20048;-77
2023/10/22 06:32:58;;;;;;;11.73;6.57;;;;;;;;;;2062790;28;20034;-78
2023/10/22 06:34:19;;;;;;;12.93;7.13;;;;;;;;;;2061245;28;20537;-78
2023/10/22 06:35:41;;;;;;;12.48;6.70;;;;;;;;;;2065849;28;20042;-78
2023/10/22 06:37:02;;;;;;;8.98;6.80;;;;;;;;;;2073323;28;20018;-77
2023/10/22 06:38:23;;;;;;;8.65;6.75;;;;;;;;;;2069076;28;20145;-77
2023/10/22 06:39:44;;;;;;;10.45;7.07;;;;;;;;;;2065527;28;20058;-77
2023/10/22 06:41:11;;;;;;;10.48;7.40;;;;;;;;;;2065579;28;20038;-77
2023/10/22 06:42:33;;;;;;;10.30;6.57;;;;;;;;;;2061769;28;20038;-78
2023/10/22 06:43:54;;;;;;;10.45;7.00;;;;;;;;;;2061398;28;20065;-78
2023/10/22 06:45:16;;;;;;;9.88;6.00;;;;;;;;;;2068797;28;20026;-77
2023/10/22 06:46:36;;;;;;;9.60;5.75;;;;;;;;;;2068571;28;20042;-77
2023/10/22 06:47:57;;;;;;;9.65;5.90;;;;;;;;;;2063962;28;20554;-78
2023/10/22 06:49:18;;;;;;;10.93;7.25;;;;;;;;;;2064710;28;20090;-77
2023/10/22 06:50:40;;;;;;;8.27;6.05;;;;;;;;;;2061511;28;20045;-77
2023/10/22 06:52:01;;;;;;;10.07;6.38;;;;;;;;;;2062466;28;20019;-78
2023/10/22 06:53:22;;;;;;;10.18;6.50;;;;;;;;;;2056288;28;20022;-77
2023/10/22 06:54:43;;;;;;;9.13;5.95;;;;;;;;;;2069246;28;20026;-77
2023/10/22 06:56:07;;;;;;;10.02;6.32;;;;;;;;;;2061326;28;20019;-77
2023/10/22 06:57:28;;;;;;;9.20;6.50;;;;;;;;;;2070034;28;20027;-77
2023/10/22 06:58:49;;;;;;;10.50;6.95;;;;;;;;;;2060440;28;20042;-78
2023/10/22 07:00:12;;;;;;;10.85;7.72;;;;;;;;;;2058333;28;20043;-78
2023/10/22 07:01:33;;;;;;;8.55;6.40;;;;;;;;;;2057389;28;20038;-78
2023/10/22 07:02:54;;;;;;;11.48;6.82;;;;;;;;;;2063712;28;20031;-77
2023/10/22 07:04:15;;;;;;;10.85;6.70;;;;;;;;;;2061431;28;20030;-77
2023/10/22 07:05:36;;;;;;;10.18;6.03;;;;;;;;;;2056583;28;20039;-77
2023/10/22 07:06:57;;;;;;;10.70;6.43;;;;;;;;;;2066288;28;20042;-78
2023/10/22 07:08:19;;;;;;;13.27;7.60;;;;;;;;;;2060057;28;20100;-77
2023/10/22 07:09:40;;;;;;;8.98;6.22;;;;;;;;;;2056781;28;20038;-78
2023/10/22 07:11:01;;;;;;;9.77;6.35;;;;;;;;;;2051487;28;20405;-78
2023/10/22 07:12:21;;;;;;;13.73;5.88;;;;;;;;;;2057300;28;20034;-78
2023/10/22 07:13:42;;;;;;;8.05;6.05;;;;;;;;;;2056292;28;20113;-78
2023/10/22 07:15:04;;;;;;;8.77;6.28;;;;;;;;;;2058531;28;20043;-77
2023/10/22 07:16:27;;;;;;;7.82;5.85;;;;;;;;;;2049526;29;20024;-77
2023/10/22 07:17:49;;;;;;;8.57;5.65;;;;;;;;;;2061465;28;20018;-77
2023/10/22 07:19:10;;;;;;;8.00;5.20;;;;;;;;;;2059907;28;20039;-78
2023/10/22 07:20:31;;;;;;;10.05;6.45;;;;;;;;;;2065299;28;20050;-76
2023/10/22 07:21:52;;;;;;;9.25;5.88;;;;;;;;;;2058354;28;20038;-77
2023/10/22 07:23:13;;;;;;;6.93;5.10;;;;;;;;;;2071239;28;20478;-77
2023/10/22 07:24:34;;;;;;;9.60;5.80;;;;;;;;;;2064197;28;20038;-78
2023/10/22 07:25:56;;;;;;;9.82;6.57;;;;;;;;;;2063604;28;20038;-77
2023/10/22 07:27:17;;;;;;;10.02;5.85;;;;;;;;;;2062747;28;20073;-78
2023/10/22 07:28:44;;;;;;;6.53;5.45;;;;;;;;;;2068202;28;20524;-78
2023/10/22 07:30:05;;;;;;;8.25;6.30;;;;;;;;;;2056896;28;20059;-77
2023/10/22 07:31:26;;;;;;;8.82;6.00;;;;;;;;;;2054298;28;20046;-77
2023/10/22 07:32:49;;;;;;;11.15;5.97;;;;;;;;;;2056993;28;20474;-77
2023/10/22 07:34:11;;;;;;;9.18;6.30;;;;;;;;;;2054247;28;20513;-78
2023/10/22 07:35:31;;;;;;;9.30;5.38;;;;;;;;;;2062237;28;20031;-77
2023/10/22 07:36:52;;;;;;;6.63;6.00;;;;;;;;;;2052628;28;20058;-78
2023/10/22 07:38:13;;;;;;;11.05;6.07;;;;;;;;;;2052686;28;20023;-78
2023/10/22 07:39:34;;;;;;;12.90;6.90;;;;;;;;;;2057814;28;20023;-78
2023/10/22 07:40:58;;;;;;;6.93;5.43;;;;;;;;;;2067403;28;20034;-77
2023/10/22 07:42:19;;;;;;;10.02;5.38;;;;;;;;;;2064365;28;20063;-77
2023/10/22 07:43:40;;;;;;;8.75;5.93;;;;;;;;;;2064297;28;20041;-77
2023/10/22 07:45:01;;;;;;;7.10;5.20;;;;;;;;;;2067438;28;20076;-78
2023/10/22 07:46:21;;;;;;;6.95;6.32;;;;;;;;;;2074133;28;20030;-77
2023/10/22 07:47:42;;;;;;;8.90;5.25;;;;;;;;;;2063295;28;20027;-77
2023/10/22 07:49:03;;;;;;;7.25;5.32;;;;;;;;;;2072222;28;20044;-77
2023/10/22 07:50:24;;;;;;;8.30;5.97;;;;;;;;;;2063254;28;20069;-77
2023/10/22 07:51:45;;;;;;;7.82;5.82;;;;;;;;;;2065313;28;20042;-78
2023/10/22 07:53:06;;;;;;;7.45;5.30;;;;;;;;;;2060720;28;20030;-78
2023/10/22 07:54:29;;;;;;;8.73;5.60;;;;;;;;;;2065357;28;20096;-77
2023/10/22 07:55:49;;;;;;;9.32;5.63;;;;;;;;;;2064636;28;20496;-79
2023/10/22 07:57:10;;;;;;;6.05;5.03;;;;;;;;;;2067804;28;20064;-77
2023/10/22 07:58:33;;;;;;;10.70;5.63;;;;;;;;;;2055963;28;20026;-78
2023/10/22 07:59:53;;;;;;;;;;;;;;;;;;2065972;28;20049;-78
2023/10/22 08:01:14;;;;;;;9.50;5.65;;;;;;;;;;2063559;28;20354;-78
2023/10/22 08:02:36;;;;;;;7.63;5.00;;;;;;;;;;2062219;28;20041;-78
2023/10/22 08:03:57;;;;;;;9.25;4.88;;;;;;;;;;2063528;28;20030;-78
2023/10/22 08:05:18;;;;;;;8.18;4.90;;;;;;;;;;2060326;28;20093;-79
2023/10/22 08:06:39;;;;;;;9.77;5.05;;;;;;;;;;2065273;28;20034;-78